CheckWX is a tool to help pilots better visualize weather data.  It is not intended as a substitute for an official pre-flight weather briefing.

09:25:44 UTC

KBYY METAR
Bay City Regional Airport
Bay City, Texas, USA
Current

31 mins ago

KBYY 200855Z AUTO 34007KT 7SM DZ OVC007 07/07 A2990 RMK AO2 T00780076
Observed
Feb-20 @ 08:55 UTC
Wind
  • 340° at 7 KTS
Visibility
11,265 meters
Flight Rules
IFR
Conditions
Drizzle
Cloud Levels
  • Overcast at 700' AGL
Temperature
C / 46°F
Dewpoint
C / 46°F
Humidity
100%
Altimeter
29.9" Hg
Pressure
1012.52 hPa
Previous

51 mins ago

KBYY 200835Z AUTO 34010G14KT 10SM OVC007 07/07 A2990 RMK AO2 T00780076
Observed
Feb-20 @ 08:35 UTC
Wind
  • 340° at 10 KTS
  • Gusting to 14 KTS
Visibility
16,093 meters
Flight Rules
IFR
Cloud Levels
  • Overcast at 700' AGL
Temperature
C / 46°F
Dewpoint
C / 46°F
Humidity
100%
Altimeter
29.9" Hg
Pressure
1012.52 hPa
Previous

1 hour ago

KBYY 200815Z AUTO 34008KT 10SM OVC007 07/07 A2989 RMK AO2 T00790078
Observed
Feb-20 @ 08:15 UTC
Wind
  • 340° at 8 KTS
Visibility
16,093 meters
Flight Rules
IFR
Cloud Levels
  • Overcast at 700' AGL
Temperature
C / 46°F
Dewpoint
C / 46°F
Humidity
100%
Altimeter
29.89" Hg
Pressure
1012.22 hPa